Tequesta, FL (33469)

11:16 PM EDT on October 31, 2014 (GMT -0400)
KFLTEQUE4 | Change Station
CLOSE
Current Station
Personal Weather Station
Location: Tequesta, FL
Elevation: 20 ft
Nearby Weather Stations

Elev 20 ft 26.96 °N, 80.08 °W | Updated 48 seconds ago

Clear
Clear
64.6 °F
Feels Like 64.6 °F
N
3.8
Wind Variable Wind from North
Gusts 3.8 mph

Today
High -- | Low -- °F
--% Chance of Precip.
Yesterday
High -- | Low -- °F
Precip. -- in
7:29 AM 6:38 PM
First Quarter, 62% visible
Pressure 29.89 in
Visibility 10.0 miles
Clouds Clear
Dew Point 55 °F
Humidity 70%
Rainfall 0.00 in
Snow Depth Not available.
UV 0 out of 12
Pollen 3.70 out of 12
Air Quality Not available.
Flu Activity Not available.
METAR KSUA 010255Z AUTO 30008G16KT 10SM CLR 18/08 A2989 RMK AO2

More Conditions Fewer Conditions

Pressure 29.89 in
Visibility 10.0 miles
Clouds Clear
Dew Point 55 °F
Humidity 70%
Rainfall 0.00 in
Snow Depth Not available.
UV 0 out of 12
Pollen 3.70 out of 12
Air Quality Not available.
Flu Activity Not available.
METAR KSUA 010255Z AUTO 30008G16KT 10SM CLR 18/08 A2989 RMK AO2

More Conditions Fewer Conditions

10-Day Weather Forecast

Almanac

Astronomy

Oct. 31, 2014 Rise Set
Actual Time
Civil Twilight
Nautical Twilight
Astronomical Twilight
Moon
Length of Visible Light
Length of Day
Tomorrow will be .
, % of the Moon is Illuminated

Today's Extremes

State Highs State Lows

Community

WunderPhotos

Upload Photos

1,766,837 photos uploaded!

WunderBlogs® & News

Nearby

Air Quality

  Air Quality AQ Index Pollutant
Not available.

Snow Depth

Station Depth Elevation

Earthquake Activity

City Distance Mag. Time & Date
Minimum magnitude displayed is 2.5.

Coastal Water Temperatures

Place Temperature

Nearby Weather Stations